Greentop, MO

5:31 AM CDT on July 14, 2014 (GMT -0500)
Fairfield Municipal (KFFL) Elev 801 ft | 41.05 °N, 91.98 °W | Change Station

Current weather conditions updated 16 minutes ago

Clear
Clear
64 °F
Feels Like 64 °F
N
6
Wind Variable Wind from WNW

Today is forecast to be Much Cooler than yesterday.

Today
High -- | Low -- °F
--% Chance of Precip.
Yesterday
High -- | Low -- °F
Precip. -- in
5:52 AM 8:39 PM
Waning Gibbous, 94% visible
Pressure 29.91 in
Visibility 10.0 miles
Clouds Clear
Dew Point 63 °F
Humidity 94%
Rainfall 0.00 in
Snow Depth Not available.
UV 0 out of 12
Pollen .60 out of 12
Air Quality Not available.
Flu Activity Sporadic
METAR KFFL 141015Z AUTO 30005KT 10SM CLR 18/17 A2991 RMK AO2

More Conditions Fewer Conditions

Pressure 29.91 in
Visibility 10.0 miles
Clouds Clear
Dew Point 63 °F
Humidity 94%
Rainfall 0.00 in
Snow Depth Not available.
UV 0 out of 12
Pollen .60 out of 12
Air Quality Not available.
Flu Activity Sporadic
METAR KFFL 141015Z AUTO 30005KT 10SM CLR 18/17 A2991 RMK AO2

More Conditions Fewer Conditions

10-Day Weather Forecast

Almanac

Astronomy

Jul. 14, 2014 Rise Set
Actual Time 5:52 AM CDT 8:39 PM CDT
Civil Twilight 5:20 AM CDT 9:11 PM CDT
Nautical Twilight 4:39 AM CDT 9:51 PM CDT
Astronomical Twilight 3:53 AM CDT 10:37 PM CDT
Moon 10:08 PM CDT 8:36 AM CDT
Length of Visible Light 15h 51m
Length of Day
14h 47m
Tomorrow will be 1m 20s shorter.
Waning Gibbous, 94% of the Moon is Illuminated
Today
Waning Gibbous
Jul 18
Last Quarter
Jul 26
New
Aug 3
First Quarter
Aug 10
Full

Today's Extremes

State Highs State Lows

Community

WunderPhotos

Upload Photos

1,733,603 photos uploaded!

Nearby

Snow Depth

Station Depth Elevation
No new snow has been reported.

Earthquake Activity

City Distance Mag. Time & Date
No recent earthquake activity has been reported nearby.
Minimum magnitude displayed is 2.5.

Coastal Water Temperatures

Place Temperature
No Stations Reporting

Nearby Weather Stations

Station Location Temp. Dew Point Humidity Wind Precip. Elev Updated Type
Lancaster, MO 67.1 °F 65 °F 91% West  at  0.0 mph - / hr 915 ft 5:30 AM CDT Normal
La Plata, La Plata, MO 69.3 °F 69 °F 100% SW  at  1.6 mph 0.00 in / hr 928 ft 5:31 AM CDT Rapid Fire

Show More Stations Show Fewer Stations